Plumas, Canada
Current Conditions -  °F | °C
As of 3:00 AM on Friday 19 Dec 2014 (Local Time) from CYBR Reporting Station
Haze Haze  
Wind Chill: 19°   Ceiling: 1100
Heat Index: 19°   Visibility: 6mi
Dew Point: 18°   Wind: 3mph
Humidity: 93%   Direction: 120°ESE
Pressure: 30"   Gusts: NA
Location:  50.38°N, 99.08°W
Report Text: CYBR 190900Z 12003KT 6SM BR OVC011 M07/M08 A3000 RMK SC8 SLP192
Loading
Personal Weather Stations






























Interactive Weather Map New forecast layout! Learn more

10-Day Weather Forecast

Advertisements
Track Severe Weather on mobile